Accueil
METAR-TAF:

METAR-TAF

Aéroports :

Aéroport de Trévise

Trévise, Italie

latitude: 45-39N, longitude: 012-11E, altitude: 18 m

Observation

Le bulletin a été fait il y a 19 minutes, à 08:20 UTC
Vent 3 kt de direction variable
Température 29°C
Humidité 70%
Pression 1011 hPa
Visibilité 10 km ou plus
Quelques nuages à une hauteur de 3000 ft

METAR: LIPH 140820Z VRB03KT 9999 FEW030 29/23 Q1011

Heure: 10:39 (08:39 UTC)

Prévision

Le bulletin a été fait il y a 3 heures et 39 minutes, à 05:00 UTC
Prévision valable du 14 à 06 UTC au 15 à 06 UTC
Vent 5 kt de direction variable
Visibilité 10 km ou plus
Quelques nuages à une hauteur de 2000 ft

TAF: LIPH 140500Z 1406/1506 VRB05KT 9999 FEW020

Observations et prévisions météorologiques de plus de 4000 aéroports (messages METAR et TAF).

Les stations disponibles sont représentées par des disques jaunes et rouges sur la carte.

Passer la souris dessus pour voir le nom de la station.

Cliquer dessus pour voir les observations et prévisions météorologiques.

Pour changer de carte: cliquez sur les boutons verts avec une croix noire pour zoomer, sur le bouton vert avec un tiret pour effectuer un zoom arrière, ou sur les flèches vertes pour les cartes adjacentes.


METAR-TAF: